sensor_id;sensor_type;location;lat;lon;timestamp;pressure;altitude;pressure_sealevel;temperature;humidity
83355;BME280;75108;50.882;5.984;2024-01-10T00:00:36;58491.44;;;-141.14;100.00
83355;BME280;75108;50.882;5.984;2024-01-10T00:03:02;58465.66;;;-141.14;100.00
83355;BME280;75108;50.882;5.984;2024-01-10T00:05:28;58465.66;;;-141.14;100.00
83355;BME280;75108;50.882;5.984;2024-01-10T00:07:54;58469.63;;;-141.14;100.00
83355;BME280;75108;50.882;5.984;2024-01-10T00:10:19;58469.63;;;-141.14;100.00
83355;BME280;75108;50.882;5.984;2024-01-10T00:12:46;58501.38;;;-141.14;100.00
83355;BME280;75108;50.882;5.984;2024-01-10T00:15:12;58465.66;;;-141.14;100.00
83355;BME280;75108;50.882;5.984;2024-01-10T00:17:37;58467.63;;;-141.14;100.00
83355;BME280;75108;50.882;5.984;2024-01-10T00:20:06;58465.66;;;-141.14;100.00
83355;BME280;75108;50.882;5.984;2024-01-10T00:22:31;58485.50;;;-141.14;100.00
83355;BME280;75108;50.882;5.984;2024-01-10T00:24:57;58469.63;;;-141.14;100.00
83355;BME280;75108;50.882;5.984;2024-01-10T00:27:22;58441.84;;;-141.14;100.00
83355;BME280;75108;50.882;5.984;2024-01-10T00:29:48;58483.50;;;-141.14;100.00
83355;BME280;75108;50.882;5.984;2024-01-10T00:32:13;58467.63;;;-141.14;100.00
83355;BME280;75108;50.882;5.984;2024-01-10T00:34:39;58463.66;;;-141.14;100.00
83355;BME280;75108;50.882;5.984;2024-01-10T00:37:04;58469.63;;;-141.14;100.00
83355;BME280;75108;50.882;5.984;2024-01-10T00:39:30;58441.84;;;-141.14;100.00
83355;BME280;75108;50.882;5.984;2024-01-10T00:41:55;58491.44;;;-141.14;100.00
83355;BME280;75108;50.882;5.984;2024-01-10T00:44:21;58471.59;;;-141.14;100.00
83355;BME280;75108;50.882;5.984;2024-01-10T00:46:46;58471.59;;;-141.14;100.00
83355;BME280;75108;50.882;5.984;2024-01-10T00:49:12;58431.94;;;-141.14;100.00
83355;BME280;75108;50.882;5.984;2024-01-10T00:51:37;58461.69;;;-141.14;100.00
83355;BME280;75108;50.882;5.984;2024-01-10T00:54:03;58469.63;;;-141.14;100.00
83355;BME280;75108;50.882;5.984;2024-01-10T00:56:28;58483.50;;;-141.14;100.00
83355;BME280;75108;50.882;5.984;2024-01-10T00:58:54;58459.69;;;-141.14;100.00
83355;BME280;75108;50.882;5.984;2024-01-10T01:01:23;58467.63;;;-141.14;100.00
83355;BME280;75108;50.882;5.984;2024-01-10T01:03:48;58489.47;;;-141.14;100.00
83355;BME280;75108;50.882;5.984;2024-01-10T01:06:14;58467.63;;;-141.14;100.00
83355;BME280;75108;50.882;5.984;2024-01-10T01:08:39;58447.78;;;-141.14;100.00
83355;BME280;75108;50.882;5.984;2024-01-10T01:11:05;58457.72;;;-141.14;100.00
83355;BME280;75108;50.882;5.984;2024-01-10T01:13:31;58473.59;;;-141.14;100.00
83355;BME280;75108;50.882;5.984;2024-01-10T01:15:56;58495.41;;;-141.14;100.00
83355;BME280;75108;50.882;5.984;2024-01-10T01:18:22;58491.44;;;-141.14;100.00
83355;BME280;75108;50.882;5.984;2024-01-10T01:20:47;58455.72;;;-141.14;100.00
83355;BME280;75108;50.882;5.984;2024-01-10T01:23:15;58467.63;;;-141.14;100.00
83355;BME280;75108;50.882;5.984;2024-01-10T01:25:40;58469.63;;;-141.14;100.00
83355;BME280;75108;50.882;5.984;2024-01-10T01:28:06;58487.47;;;-141.14;100.00
83355;BME280;75108;50.882;5.984;2024-01-10T01:30:32;58489.47;;;-141.14;100.00
83355;BME280;75108;50.882;5.984;2024-01-10T01:32:57;58503.34;;;-141.14;100.00
83355;BME280;75108;50.882;5.984;2024-01-10T01:35:22;58491.44;;;-141.14;100.00
83355;BME280;75108;50.882;5.984;2024-01-10T01:37:49;58489.47;;;-141.14;100.00
83355;BME280;75108;50.882;5.984;2024-01-10T01:40:14;58447.78;;;-141.14;100.00
83355;BME280;75108;50.882;5.984;2024-01-10T01:42:40;58489.47;;;-141.14;100.00
83355;BME280;75108;50.882;5.984;2024-01-10T01:45:06;58465.66;;;-141.14;100.00
83355;BME280;75108;50.882;5.984;2024-01-10T01:47:31;58501.38;;;-141.14;100.00
83355;BME280;75108;50.882;5.984;2024-01-10T01:49:57;58491.44;;;-141.14;100.00
83355;BME280;75108;50.882;5.984;2024-01-10T01:52:23;58493.44;;;-141.14;100.00
83355;BME280;75108;50.882;5.984;2024-01-10T01:54:50;58473.59;;;-141.14;100.00
83355;BME280;75108;50.882;5.984;2024-01-10T01:57:15;58475.56;;;-141.14;100.00
83355;BME280;75108;50.882;5.984;2024-01-10T01:59:42;58469.63;;;-141.14;100.00
83355;BME280;75108;50.882;5.984;2024-01-10T02:02:08;58489.47;;;-141.14;100.00
83355;BME280;75108;50.882;5.984;2024-01-10T02:04:33;58435.91;;;-141.14;100.00
83355;BME280;75108;50.882;5.984;2024-01-10T02:06:59;58473.59;;;-141.14;100.00
83355;BME280;75108;50.882;5.984;2024-01-10T02:09:25;58477.56;;;-141.14;100.00
83355;BME280;75108;50.882;5.984;2024-01-10T02:11:50;58493.44;;;-141.14;100.00
83355;BME280;75108;50.882;5.984;2024-01-10T02:14:16;58463.66;;;-141.14;100.00
83355;BME280;75108;50.882;5.984;2024-01-10T02:16:43;58473.59;;;-141.14;100.00
83355;BME280;75108;50.882;5.984;2024-01-10T02:19:19;58485.50;;;-141.14;100.00
83355;BME280;75108;50.882;5.984;2024-01-10T02:21:45;58483.50;;;-141.14;100.00
83355;BME280;75108;50.882;5.984;2024-01-10T02:24:10;58487.47;;;-141.14;100.00
83355;BME280;75108;50.882;5.984;2024-01-10T02:26:36;58489.47;;;-141.14;100.00
83355;BME280;75108;50.882;5.984;2024-01-10T02:29:01;58503.34;;;-141.14;100.00
83355;BME280;75108;50.882;5.984;2024-01-10T02:31:27;58487.47;;;-141.14;100.00
83355;BME280;75108;50.882;5.984;2024-01-10T02:33:52;58513.28;;;-141.14;100.00
83355;BME280;75108;50.882;5.984;2024-01-10T02:36:18;58517.25;;;-141.14;100.00
83355;BME280;75108;50.882;5.984;2024-01-10T02:38:43;58477.56;;;-141.14;100.00
83355;BME280;75108;50.882;5.984;2024-01-10T02:41:09;58469.63;;;-141.14;100.00
83355;BME280;75108;50.882;5.984;2024-01-10T02:43:34;58499.38;;;-141.14;100.00
83355;BME280;75108;50.882;5.984;2024-01-10T02:45:59;58491.44;;;-141.14;100.00
83355;BME280;75108;50.882;5.984;2024-01-10T02:48:25;58461.69;;;-141.14;100.00
83355;BME280;75108;50.882;5.984;2024-01-10T02:50:50;58485.50;;;-141.14;100.00
83355;BME280;75108;50.882;5.984;2024-01-10T02:53:16;58517.25;;;-141.14;100.00
83355;BME280;75108;50.882;5.984;2024-01-10T02:55:43;58495.41;;;-141.14;100.00
83355;BME280;75108;50.882;5.984;2024-01-10T02:58:08;58493.44;;;-141.14;100.00
83355;BME280;75108;50.882;5.984;2024-01-10T03:00:33;58479.53;;;-141.14;100.00
83355;BME280;75108;50.882;5.984;2024-01-10T03:02:59;58479.53;;;-141.14;100.00
83355;BME280;75108;50.882;5.984;2024-01-10T03:05:24;58481.53;;;-141.14;100.00
83355;BME280;75108;50.882;5.984;2024-01-10T03:07:50;58453.75;;;-141.14;100.00
83355;BME280;75108;50.882;5.984;2024-01-10T03:10:15;58507.31;;;-141.14;100.00
83355;BME280;75108;50.882;5.984;2024-01-10T03:12:41;58495.41;;;-141.14;100.00
83355;BME280;75108;50.882;5.984;2024-01-10T03:15:06;58493.44;;;-141.14;100.00
83355;BME280;75108;50.882;5.984;2024-01-10T03:17:32;58469.63;;;-141.14;100.00
83355;BME280;75108;50.882;5.984;2024-01-10T03:19:59;58479.53;;;-141.14;100.00
83355;BME280;75108;50.882;5.984;2024-01-10T03:22:24;58501.38;;;-141.14;100.00
83355;BME280;75108;50.882;5.984;2024-01-10T03:24:50;58447.78;;;-141.14;100.00
83355;BME280;75108;50.882;5.984;2024-01-10T03:27:15;58467.63;;;-141.14;100.00
83355;BME280;75108;50.882;5.984;2024-01-10T03:29:40;58461.69;;;-141.14;100.00
83355;BME280;75108;50.882;5.984;2024-01-10T03:32:06;58483.50;;;-141.14;100.00
83355;BME280;75108;50.882;5.984;2024-01-10T03:34:31;58493.44;;;-141.14;100.00
83355;BME280;75108;50.882;5.984;2024-01-10T03:36:57;58509.31;;;-141.14;100.00
83355;BME280;75108;50.882;5.984;2024-01-10T03:39:23;58493.44;;;-141.14;100.00
83355;BME280;75108;50.882;5.984;2024-01-10T03:41:49;58471.59;;;-141.14;100.00
83355;BME280;75108;50.882;5.984;2024-01-10T03:44:14;58483.50;;;-141.14;100.00
83355;BME280;75108;50.882;5.984;2024-01-10T03:46:39;58505.34;;;-141.14;100.00
83355;BME280;75108;50.882;5.984;2024-01-10T03:49:05;58483.50;;;-141.14;100.00
83355;BME280;75108;50.882;5.984;2024-01-10T03:51:30;58507.31;;;-141.14;100.00
83355;BME280;75108;50.882;5.984;2024-01-10T03:53:56;58501.38;;;-141.14;100.00
83355;BME280;75108;50.882;5.984;2024-01-10T03:56:21;58465.66;;;-141.14;100.00
83355;BME280;75108;50.882;5.984;2024-01-10T03:58:47;58485.50;;;-141.14;100.00
83355;BME280;75108;50.882;5.984;2024-01-10T04:01:14;58487.47;;;-141.14;100.00
83355;BME280;75108;50.882;5.984;2024-01-10T04:03:39;58481.53;;;-141.14;100.00
83355;BME280;75108;50.882;5.984;2024-01-10T04:06:07;58489.47;;;-141.14;100.00
83355;BME280;75108;50.882;5.984;2024-01-10T04:08:32;58495.41;;;-141.14;100.00
83355;BME280;75108;50.882;5.984;2024-01-10T04:10:58;58487.47;;;-141.14;100.00
83355;BME280;75108;50.882;5.984;2024-01-10T04:13:24;58507.31;;;-141.14;100.00
83355;BME280;75108;50.882;5.984;2024-01-10T04:15:49;58503.34;;;-141.14;100.00
83355;BME280;75108;50.882;5.984;2024-01-10T04:18:15;58487.47;;;-141.14;100.00
83355;BME280;75108;50.882;5.984;2024-01-10T04:20:40;58505.34;;;-141.14;100.00
83355;BME280;75108;50.882;5.984;2024-01-10T04:23:07;58465.66;;;-141.14;100.00
83355;BME280;75108;50.882;5.984;2024-01-10T04:25:32;58499.38;;;-141.14;100.00
83355;BME280;75108;50.882;5.984;2024-01-10T04:27:58;58505.34;;;-141.14;100.00
83355;BME280;75108;50.882;5.984;2024-01-10T04:30:23;58459.69;;;-141.14;100.00
83355;BME280;75108;50.882;5.984;2024-01-10T04:32:49;58465.66;;;-141.14;100.00
83355;BME280;75108;50.882;5.984;2024-01-10T04:35:14;58501.38;;;-141.14;100.00
83355;BME280;75108;50.882;5.984;2024-01-10T04:37:39;58489.47;;;-141.14;100.00
83355;BME280;75108;50.882;5.984;2024-01-10T04:40:06;58483.50;;;-141.14;100.00
83355;BME280;75108;50.882;5.984;2024-01-10T04:42:31;58483.50;;;-141.14;100.00
83355;BME280;75108;50.882;5.984;2024-01-10T04:44:57;58487.47;;;-141.14;100.00
83355;BME280;75108;50.882;5.984;2024-01-10T04:47:22;58461.69;;;-141.14;100.00
83355;BME280;75108;50.882;5.984;2024-01-10T04:49:47;58485.50;;;-141.14;100.00
83355;BME280;75108;50.882;5.984;2024-01-10T04:52:13;58477.56;;;-141.14;100.00
83355;BME280;75108;50.882;5.984;2024-01-10T04:54:38;58481.53;;;-141.14;100.00
83355;BME280;75108;50.882;5.984;2024-01-10T04:57:04;58459.69;;;-141.14;100.00
83355;BME280;75108;50.882;5.984;2024-01-10T04:59:30;58465.66;;;-141.14;100.00
83355;BME280;75108;50.882;5.984;2024-01-10T05:01:55;58513.28;;;-141.14;100.00
83355;BME280;75108;50.882;5.984;2024-01-10T05:04:20;58497.41;;;-141.14;100.00
83355;BME280;75108;50.882;5.984;2024-01-10T05:06:46;58469.63;;;-141.14;100.00
83355;BME280;75108;50.882;5.984;2024-01-10T05:09:12;58461.69;;;-141.14;100.00
83355;BME280;75108;50.882;5.984;2024-01-10T05:11:37;58479.53;;;-141.14;100.00
83355;BME280;75108;50.882;5.984;2024-01-10T05:14:03;58469.63;;;-141.14;100.00
83355;BME280;75108;50.882;5.984;2024-01-10T05:16:29;58489.47;;;-141.14;100.00
83355;BME280;75108;50.882;5.984;2024-01-10T05:18:54;58483.50;;;-141.14;100.00
83355;BME280;75108;50.882;5.984;2024-01-10T05:21:20;58493.44;;;-141.14;100.00
83355;BME280;75108;50.882;5.984;2024-01-10T05:23:46;58475.56;;;-141.14;100.00
83355;BME280;75108;50.882;5.984;2024-01-10T05:26:11;58449.78;;;-141.14;100.00
83355;BME280;75108;50.882;5.984;2024-01-10T05:28:37;58491.44;;;-141.14;100.00
83355;BME280;75108;50.882;5.984;2024-01-10T05:31:02;58469.63;;;-141.14;100.00
83355;BME280;75108;50.882;5.984;2024-01-10T05:33:28;58489.47;;;-141.14;100.00
83355;BME280;75108;50.882;5.984;2024-01-10T05:35:53;58467.63;;;-141.14;100.00
83355;BME280;75108;50.882;5.984;2024-01-10T05:38:18;58493.44;;;-141.14;100.00
83355;BME280;75108;50.882;5.984;2024-01-10T05:40:44;58485.50;;;-141.14;100.00
83355;BME280;75108;50.882;5.984;2024-01-10T05:43:09;58481.53;;;-141.14;100.00
83355;BME280;75108;50.882;5.984;2024-01-10T05:45:38;58469.63;;;-141.14;100.00
83355;BME280;75108;50.882;5.984;2024-01-10T05:48:04;58451.75;;;-141.14;100.00
83355;BME280;75108;50.882;5.984;2024-01-10T05:50:29;58483.50;;;-141.14;100.00
83355;BME280;75108;50.882;5.984;2024-01-10T05:52:55;58505.34;;;-141.14;100.00
83355;BME280;75108;50.882;5.984;2024-01-10T05:55:20;58491.44;;;-141.14;100.00
83355;BME280;75108;50.882;5.984;2024-01-10T05:57:46;58523.19;;;-141.14;100.00
83355;BME280;75108;50.882;5.984;2024-01-10T06:00:12;58499.38;;;-141.14;100.00
83355;BME280;75108;50.882;5.984;2024-01-10T06:02:41;58461.69;;;-141.14;100.00
83355;BME280;75108;50.882;5.984;2024-01-10T06:05:10;58501.38;;;-141.14;100.00
83355;BME280;75108;50.882;5.984;2024-01-10T06:07:37;58493.44;;;-141.14;100.00
83355;BME280;75108;50.882;5.984;2024-01-10T06:10:02;58489.47;;;-141.14;100.00
83355;BME280;75108;50.882;5.984;2024-01-10T06:12:28;58485.50;;;-141.14;100.00
83355;BME280;75108;50.882;5.984;2024-01-10T06:14:54;58483.50;;;-141.14;100.00
83355;BME280;75108;50.882;5.984;2024-01-10T06:17:19;58497.41;;;-141.14;100.00
83355;BME280;75108;50.882;5.984;2024-01-10T06:19:45;58473.59;;;-141.14;100.00
83355;BME280;75108;50.882;5.984;2024-01-10T06:22:10;58453.75;;;-141.14;100.00
83355;BME280;75108;50.882;5.984;2024-01-10T06:24:39;58501.38;;;-141.14;100.00
83355;BME280;75108;50.882;5.984;2024-01-10T06:27:06;58485.50;;;-141.14;100.00
83355;BME280;75108;50.882;5.984;2024-01-10T06:29:32;58489.47;;;-141.14;100.00
83355;BME280;75108;50.882;5.984;2024-01-10T06:31:58;58481.53;;;-141.14;100.00
83355;BME280;75108;50.882;5.984;2024-01-10T06:34:24;58499.38;;;-141.14;100.00
83355;BME280;75108;50.882;5.984;2024-01-10T06:36:49;58493.44;;;-141.14;100.00
83355;BME280;75108;50.882;5.984;2024-01-10T06:39:15;58467.63;;;-141.14;100.00
83355;BME280;75108;50.882;5.984;2024-01-10T06:41:42;58475.56;;;-141.14;100.00
83355;BME280;75108;50.882;5.984;2024-01-10T06:44:07;58493.44;;;-141.14;100.00
83355;BME280;75108;50.882;5.984;2024-01-10T06:46:33;58469.63;;;-141.14;100.00
83355;BME280;75108;50.882;5.984;2024-01-10T06:48:58;58487.47;;;-141.14;100.00
83355;BME280;75108;50.882;5.984;2024-01-10T06:51:24;58483.50;;;-141.14;100.00
83355;BME280;75108;50.882;5.984;2024-01-10T06:53:49;58489.47;;;-141.14;100.00
83355;BME280;75108;50.882;5.984;2024-01-10T06:56:15;58473.59;;;-141.14;100.00
83355;BME280;75108;50.882;5.984;2024-01-10T06:58:40;58493.44;;;-141.14;100.00
83355;BME280;75108;50.882;5.984;2024-01-10T07:01:11;58491.44;;;-141.14;100.00
83355;BME280;75108;50.882;5.984;2024-01-10T07:03:38;58469.63;;;-141.14;100.00
83355;BME280;75108;50.882;5.984;2024-01-10T07:06:04;58479.53;;;-141.14;100.00
83355;BME280;75108;50.882;5.984;2024-01-10T07:08:30;58501.38;;;-141.14;100.00
83355;BME280;75108;50.882;5.984;2024-01-10T07:10:56;58455.72;;;-141.14;100.00
83355;BME280;75108;50.882;5.984;2024-01-10T07:13:22;58497.41;;;-141.14;100.00
83355;BME280;75108;50.882;5.984;2024-01-10T07:15:48;58485.50;;;-141.14;100.00
83355;BME280;75108;50.882;5.984;2024-01-10T07:18:16;58501.38;;;-141.14;100.00
83355;BME280;75108;50.882;5.984;2024-01-10T07:20:41;58499.38;;;-141.14;100.00
83355;BME280;75108;50.882;5.984;2024-01-10T07:23:07;58473.59;;;-141.14;100.00
83355;BME280;75108;50.882;5.984;2024-01-10T07:25:32;58489.47;;;-141.14;100.00
83355;BME280;75108;50.882;5.984;2024-01-10T07:27:59;58473.59;;;-141.14;100.00
83355;BME280;75108;50.882;5.984;2024-01-10T07:30:24;58503.34;;;-141.14;100.00
83355;BME280;75108;50.882;5.984;2024-01-10T07:32:50;58511.28;;;-141.14;100.00
83355;BME280;75108;50.882;5.984;2024-01-10T07:35:15;58499.38;;;-141.14;100.00
83355;BME280;75108;50.882;5.984;2024-01-10T07:37:41;58481.53;;;-141.14;100.00
83355;BME280;75108;50.882;5.984;2024-01-10T07:40:10;58467.63;;;-141.14;100.00
83355;BME280;75108;50.882;5.984;2024-01-10T07:42:37;58475.56;;;-141.14;100.00
83355;BME280;75108;50.882;5.984;2024-01-10T07:45:03;58473.59;;;-141.14;100.00
83355;BME280;75108;50.882;5.984;2024-01-10T07:47:33;58513.28;;;-141.14;100.00
83355;BME280;75108;50.882;5.984;2024-01-10T07:50:08;58487.47;;;-141.14;100.00
83355;BME280;75108;50.882;5.984;2024-01-10T07:52:34;58517.25;;;-141.14;100.00
83355;BME280;75108;50.882;5.984;2024-01-10T07:55:00;58489.47;;;-141.14;100.00
83355;BME280;75108;50.882;5.984;2024-01-10T07:57:27;58493.44;;;-141.14;100.00
83355;BME280;75108;50.882;5.984;2024-01-10T07:59:53;58477.56;;;-141.14;100.00
83355;BME280;75108;50.882;5.984;2024-01-10T08:02:18;58505.34;;;-141.14;100.00
83355;BME280;75108;50.882;5.984;2024-01-10T08:04:44;58469.63;;;-141.14;100.00
83355;BME280;75108;50.882;5.984;2024-01-10T08:07:10;58477.56;;;-141.14;100.00
83355;BME280;75108;50.882;5.984;2024-01-10T08:09:36;58485.50;;;-141.14;100.00
83355;BME280;75108;50.882;5.984;2024-01-10T08:12:03;58491.44;;;-141.14;100.00
83355;BME280;75108;50.882;5.984;2024-01-10T08:14:29;58483.50;;;-141.14;100.00
83355;BME280;75108;50.882;5.984;2024-01-10T08:16:54;58491.44;;;-141.14;100.00
83355;BME280;75108;50.882;5.984;2024-01-10T08:19:23;58497.41;;;-141.14;100.00
83355;BME280;75108;50.882;5.984;2024-01-10T08:21:49;58481.53;;;-141.14;100.00
83355;BME280;75108;50.882;5.984;2024-01-10T08:24:15;58479.53;;;-141.14;100.00
83355;BME280;75108;50.882;5.984;2024-01-10T08:26:41;58457.72;;;-141.14;100.00
83355;BME280;75108;50.882;5.984;2024-01-10T08:29:06;58477.56;;;-141.14;100.00
83355;BME280;75108;50.882;5.984;2024-01-10T08:31:32;58445.81;;;-141.14;100.00
83355;BME280;75108;50.882;5.984;2024-01-10T08:33:57;58477.56;;;-141.14;100.00
83355;BME280;75108;50.882;5.984;2024-01-10T08:36:23;58499.38;;;-141.14;100.00
83355;BME280;75108;50.882;5.984;2024-01-10T08:38:50;58489.47;;;-141.14;100.00
83355;BME280;75108;50.882;5.984;2024-01-10T08:41:15;58495.41;;;-141.14;100.00
83355;BME280;75108;50.882;5.984;2024-01-10T08:43:41;58503.34;;;-141.14;100.00
83355;BME280;75108;50.882;5.984;2024-01-10T08:46:08;58495.41;;;-141.14;100.00
83355;BME280;75108;50.882;5.984;2024-01-10T08:48:34;58497.41;;;-141.14;100.00
83355;BME280;75108;50.882;5.984;2024-01-10T08:51:00;58473.59;;;-141.14;100.00
83355;BME280;75108;50.882;5.984;2024-01-10T08:53:25;58477.56;;;-141.14;100.00
83355;BME280;75108;50.882;5.984;2024-01-10T08:55:51;58455.72;;;-141.14;100.00
83355;BME280;75108;50.882;5.984;2024-01-10T08:58:16;58422.00;;;-141.14;100.00
83355;BME280;75108;50.882;5.984;2024-01-10T09:00:42;58499.38;;;-141.14;100.00
83355;BME280;75108;50.882;5.984;2024-01-10T09:03:08;58479.53;;;-141.14;100.00
83355;BME280;75108;50.882;5.984;2024-01-10T09:05:34;58453.75;;;-141.14;100.00
83355;BME280;75108;50.882;5.984;2024-01-10T09:07:59;58495.41;;;-141.14;100.00
83355;BME280;75108;50.882;5.984;2024-01-10T09:10:25;58469.63;;;-141.14;100.00
83355;BME280;75108;50.882;5.984;2024-01-10T09:12:53;58487.47;;;-141.14;100.00
83355;BME280;75108;50.882;5.984;2024-01-10T09:15:19;58489.47;;;-141.14;100.00
83355;BME280;75108;50.882;5.984;2024-01-10T09:17:45;58465.66;;;-141.14;100.00
83355;BME280;75108;50.882;5.984;2024-01-10T09:20:11;58457.72;;;-141.14;100.00
83355;BME280;75108;50.882;5.984;2024-01-10T09:22:38;58457.72;;;-141.14;100.00
83355;BME280;75108;50.882;5.984;2024-01-10T09:25:07;58420.03;;;-141.14;100.00
83355;BME280;75108;50.882;5.984;2024-01-10T09:27:33;58485.50;;;-141.14;100.00
83355;BME280;75108;50.882;5.984;2024-01-10T09:30:00;58465.66;;;-141.14;100.00
83355;BME280;75108;50.882;5.984;2024-01-10T09:32:28;58453.75;;;-141.14;100.00
83355;BME280;75108;50.882;5.984;2024-01-10T09:34:55;58418.03;;;-141.14;100.00
83355;BME280;75108;50.882;5.984;2024-01-10T09:37:21;58445.81;;;-141.14;100.00
83355;BME280;75108;50.882;5.984;2024-01-10T09:39:48;58475.56;;;-141.14;100.00
83355;BME280;75108;50.882;5.984;2024-01-10T09:42:14;58453.75;;;-141.14;100.00
83355;BME280;75108;50.882;5.984;2024-01-10T09:44:40;58459.69;;;-141.14;100.00
83355;BME280;75108;50.882;5.984;2024-01-10T09:47:07;58469.63;;;-141.14;100.00
83355;BME280;75108;50.882;5.984;2024-01-10T09:49:35;58461.69;;;-141.14;100.00
83355;BME280;75108;50.882;5.984;2024-01-10T09:52:03;58453.75;;;-141.14;100.00
83355;BME280;75108;50.882;5.984;2024-01-10T09:54:30;58457.72;;;-141.14;100.00
83355;BME280;75108;50.882;5.984;2024-01-10T09:56:59;58477.56;;;-141.14;100.00
83355;BME280;75108;50.882;5.984;2024-01-10T09:59:24;58455.72;;;-141.14;100.00
83355;BME280;75108;50.882;5.984;2024-01-10T10:01:51;58441.84;;;-141.14;100.00
83355;BME280;75108;50.882;5.984;2024-01-10T10:04:18;58435.91;;;-141.14;100.00
83355;BME280;75108;50.882;5.984;2024-01-10T10:06:45;58433.91;;;-141.14;100.00
83355;BME280;75108;50.882;5.984;2024-01-10T10:09:12;58449.78;;;-141.14;100.00
83355;BME280;75108;50.882;5.984;2024-01-10T10:11:37;58441.84;;;-141.14;100.00
83355;BME280;75108;50.882;5.984;2024-01-10T10:14:29;58443.84;;;-141.14;100.00
83355;BME280;75108;50.882;5.984;2024-01-10T10:17:13;58414.06;;;-141.14;100.00
83355;BME280;75108;50.882;5.984;2024-01-10T10:19:40;58420.03;;;-141.14;100.00
83355;BME280;75108;50.882;5.984;2024-01-10T10:22:09;58425.97;;;-141.14;100.00
83355;BME280;75108;50.882;5.984;2024-01-10T10:24:35;58435.91;;;-141.14;100.00
83355;BME280;75108;50.882;5.984;2024-01-10T10:27:00;58414.06;;;-141.14;100.00
83355;BME280;75108;50.882;5.984;2024-01-10T10:29:25;58437.88;;;-141.14;100.00
83355;BME280;75108;50.882;5.984;2024-01-10T10:31:51;58429.94;;;-141.14;100.00
83355;BME280;75108;50.882;5.984;2024-01-10T10:34:21;58394.22;;;-141.14;100.00
83355;BME280;75108;50.882;5.984;2024-01-10T10:36:48;58418.03;;;-141.14;100.00
83355;BME280;75108;50.882;5.984;2024-01-10T10:39:16;58425.97;;;-141.14;100.00
83355;BME280;75108;50.882;5.984;2024-01-10T10:41:42;58439.88;;;-141.14;100.00
83355;BME280;75108;50.882;5.984;2024-01-10T10:44:09;58422.00;;;-141.14;100.00
83355;BME280;75108;50.882;5.984;2024-01-10T10:46:36;58425.97;;;-141.14;100.00
83355;BME280;75108;50.882;5.984;2024-01-10T10:49:08;58410.09;;;-141.14;100.00
83355;BME280;75108;50.882;5.984;2024-01-10T10:51:36;58394.22;;;-141.14;100.00
83355;BME280;75108;50.882;5.984;2024-01-10T10:54:03;58431.94;;;-141.14;100.00
83355;BME280;75108;50.882;5.984;2024-01-10T10:56:30;58433.91;;;-141.14;100.00
83355;BME280;75108;50.882;5.984;2024-01-10T10:58:56;58390.25;;;-141.14;100.00
83355;BME280;75108;50.882;5.984;2024-01-10T11:01:25;58437.88;;;-141.14;100.00
83355;BME280;75108;50.882;5.984;2024-01-10T11:03:52;58422.00;;;-141.14;100.00
83355;BME280;75108;50.882;5.984;2024-01-10T11:06:19;58416.06;;;-141.14;100.00
83355;BME280;75108;50.882;5.984;2024-01-10T11:08:49;58398.19;;;-141.14;100.00
83355;BME280;75108;50.882;5.984;2024-01-10T11:20:12;58424.00;;;-141.14;100.00
83355;BME280;75108;50.882;5.984;2024-01-10T11:25:19;58404.16;;;-141.14;100.00
83355;BME280;75108;50.882;5.984;2024-01-10T11:27:45;58398.19;;;-141.14;100.00
83355;BME280;75108;50.882;5.984;2024-01-10T11:30:12;58422.00;;;-141.14;100.00
83355;BME280;75108;50.882;5.984;2024-01-10T11:32:38;58429.94;;;-141.14;100.00
83355;BME280;75108;50.882;5.984;2024-01-10T11:35:19;58424.00;;;-141.14;100.00
83355;BME280;75108;50.882;5.984;2024-01-10T11:37:47;58437.88;;;-141.14;100.00
83355;BME280;75108;50.882;5.984;2024-01-10T11:40:15;58422.00;;;-141.14;100.00
83355;BME280;75108;50.882;5.984;2024-01-10T11:42:45;58441.84;;;-141.14;100.00
83355;BME280;75108;50.882;5.984;2024-01-10T11:47:56;58433.91;;;-141.14;100.00
83355;BME280;75108;50.882;5.984;2024-01-10T11:50:23;58406.13;;;-141.14;100.00
83355;BME280;75108;50.882;5.984;2024-01-10T11:52:52;58384.31;;;-141.14;100.00
83355;BME280;75108;50.882;5.984;2024-01-10T11:55:46;58406.13;;;-141.14;100.00
83355;BME280;75108;50.882;5.984;2024-01-10T11:58:12;58422.00;;;-141.14;100.00
83355;BME280;75108;50.882;5.984;2024-01-10T12:00:38;58455.72;;;-141.14;100.00
83355;BME280;75108;50.882;5.984;2024-01-10T12:03:04;58429.94;;;-141.14;100.00
83355;BME280;75108;50.882;5.984;2024-01-10T12:05:29;58435.91;;;-141.14;100.00
83355;BME280;75108;50.882;5.984;2024-01-10T12:07:55;58398.19;;;-141.14;100.00
83355;BME280;75108;50.882;5.984;2024-01-10T12:10:20;58406.13;;;-141.14;100.00
83355;BME280;75108;50.882;5.984;2024-01-10T12:12:46;58414.06;;;-141.14;100.00
83355;BME280;75108;50.882;5.984;2024-01-10T12:15:11;58370.41;;;-141.14;100.00
83355;BME280;75108;50.882;5.984;2024-01-10T12:17:37;58394.22;;;-141.14;100.00
83355;BME280;75108;50.882;5.984;2024-01-10T12:20:03;58410.09;;;-141.14;100.00
83355;BME280;75108;50.882;5.984;2024-01-10T12:22:28;58376.38;;;-141.14;100.00
83355;BME280;75108;50.882;5.984;2024-01-10T12:25:04;58394.22;;;-141.14;100.00
83355;BME280;75108;50.882;5.984;2024-01-10T12:27:29;58398.19;;;-141.14;100.00
83355;BME280;75108;50.882;5.984;2024-01-10T12:29:55;58410.09;;;-141.14;100.00
83355;BME280;75108;50.882;5.984;2024-01-10T12:32:21;58429.94;;;-141.14;100.00
83355;BME280;75108;50.882;5.984;2024-01-10T12:34:48;58374.38;;;-141.14;100.00
83355;BME280;75108;50.882;5.984;2024-01-10T12:37:13;58410.09;;;-141.14;100.00
83355;BME280;75108;50.882;5.984;2024-01-10T12:39:39;58390.25;;;-141.14;100.00